sensor_id;sensor_type;location;lat;lon;timestamp;P1;durP1;ratioP1;P2;durP2;ratioP2
14272;SDS011;7220;49.450;11.052;2024-01-30T00:02:06;4.97;;;4.10;;
14272;SDS011;7220;49.450;11.052;2024-01-30T00:06:07;3.92;;;2.92;;
14272;SDS011;7220;49.450;11.052;2024-01-30T00:10:08;6.95;;;3.55;;
14272;SDS011;7220;49.450;11.052;2024-01-30T00:14:08;5.18;;;3.58;;
14272;SDS011;7220;49.450;11.052;2024-01-30T00:18:09;5.47;;;3.50;;
14272;SDS011;7220;49.450;11.052;2024-01-30T00:22:09;4.93;;;3.30;;
14272;SDS011;7220;49.450;11.052;2024-01-30T00:26:09;6.55;;;2.78;;
14272;SDS011;7220;49.450;11.052;2024-01-30T00:30:11;3.22;;;2.92;;
14272;SDS011;7220;49.450;11.052;2024-01-30T00:34:12;3.58;;;2.88;;
14272;SDS011;7220;49.450;11.052;2024-01-30T00:38:12;3.15;;;2.40;;
14272;SDS011;7220;49.450;11.052;2024-01-30T00:42:12;3.38;;;2.83;;
14272;SDS011;7220;49.450;11.052;2024-01-30T00:46:13;3.45;;;3.03;;
14272;SDS011;7220;49.450;11.052;2024-01-30T00:50:13;3.33;;;3.03;;
14272;SDS011;7220;49.450;11.052;2024-01-30T00:54:13;3.65;;;3.03;;
14272;SDS011;7220;49.450;11.052;2024-01-30T00:58:14;5.45;;;2.75;;
14272;SDS011;7220;49.450;11.052;2024-01-30T01:02:14;3.60;;;2.63;;
14272;SDS011;7220;49.450;11.052;2024-01-30T01:06:17;3.05;;;2.75;;
14272;SDS011;7220;49.450;11.052;2024-01-30T01:10:17;2.85;;;2.65;;
14272;SDS011;7220;49.450;11.052;2024-01-30T01:14:18;2.33;;;2.13;;
14272;SDS011;7220;49.450;11.052;2024-01-30T01:18:18;3.80;;;2.75;;
14272;SDS011;7220;49.450;11.052;2024-01-30T01:22:18;2.75;;;2.45;;
14272;SDS011;7220;49.450;11.052;2024-01-30T01:26:19;3.35;;;2.58;;
14272;SDS011;7220;49.450;11.052;2024-01-30T01:30:19;4.75;;;2.70;;
14272;SDS011;7220;49.450;11.052;2024-01-30T01:34:21;3.20;;;2.63;;
14272;SDS011;7220;49.450;11.052;2024-01-30T01:38:23;4.45;;;2.83;;
14272;SDS011;7220;49.450;11.052;2024-01-30T01:42:24;3.08;;;2.70;;
14272;SDS011;7220;49.450;11.052;2024-01-30T01:46:26;3.10;;;2.42;;
14272;SDS011;7220;49.450;11.052;2024-01-30T01:50:27;4.50;;;2.00;;
14272;SDS011;7220;49.450;11.052;2024-01-30T01:54:28;2.92;;;2.63;;
14272;SDS011;7220;49.450;11.052;2024-01-30T01:58:29;3.30;;;2.42;;
14272;SDS011;7220;49.450;11.052;2024-01-30T02:02:30;3.63;;;2.80;;
14272;SDS011;7220;49.450;11.052;2024-01-30T02:06:34;2.90;;;2.33;;
14272;SDS011;7220;49.450;11.052;2024-01-30T02:10:35;3.60;;;2.58;;
14272;SDS011;7220;49.450;11.052;2024-01-30T02:14:44;2.63;;;2.40;;
14272;SDS011;7220;49.450;11.052;2024-01-30T02:18:45;4.18;;;2.30;;
14272;SDS011;7220;49.450;11.052;2024-01-30T02:22:47;3.47;;;2.45;;
14272;SDS011;7220;49.450;11.052;2024-01-30T02:26:49;4.93;;;2.70;;
14272;SDS011;7220;49.450;11.052;2024-01-30T02:30:49;2.97;;;2.60;;
14272;SDS011;7220;49.450;11.052;2024-01-30T02:34:49;2.35;;;2.15;;
14272;SDS011;7220;49.450;11.052;2024-01-30T02:38:50;4.47;;;2.17;;
14272;SDS011;7220;49.450;11.052;2024-01-30T02:42:50;2.53;;;2.33;;
14272;SDS011;7220;49.450;11.052;2024-01-30T02:46:50;6.28;;;2.67;;
14272;SDS011;7220;49.450;11.052;2024-01-30T02:50:51;3.85;;;2.78;;
14272;SDS011;7220;49.450;11.052;2024-01-30T02:54:51;2.63;;;2.13;;
14272;SDS011;7220;49.450;11.052;2024-01-30T02:58:51;3.80;;;2.50;;
14272;SDS011;7220;49.450;11.052;2024-01-30T03:02:51;2.33;;;1.98;;
14272;SDS011;7220;49.450;11.052;2024-01-30T03:06:52;2.35;;;2.10;;
14272;SDS011;7220;49.450;11.052;2024-01-30T03:10:53;4.38;;;2.33;;
14272;SDS011;7220;49.450;11.052;2024-01-30T03:14:53;2.65;;;2.15;;
14272;SDS011;7220;49.450;11.052;2024-01-30T03:18:54;2.65;;;1.92;;
14272;SDS011;7220;49.450;11.052;2024-01-30T03:22:54;2.47;;;2.28;;
14272;SDS011;7220;49.450;11.052;2024-01-30T03:26:55;2.63;;;2.42;;
14272;SDS011;7220;49.450;11.052;2024-01-30T03:30:56;3.13;;;2.60;;
14272;SDS011;7220;49.450;11.052;2024-01-30T03:34:56;3.30;;;3.00;;
14272;SDS011;7220;49.450;11.052;2024-01-30T03:38:58;2.45;;;2.25;;
14272;SDS011;7220;49.450;11.052;2024-01-30T03:42:58;6.38;;;2.75;;
14272;SDS011;7220;49.450;11.052;2024-01-30T03:46:59;2.95;;;2.75;;
14272;SDS011;7220;49.450;11.052;2024-01-30T03:50:59;3.50;;;2.78;;
14272;SDS011;7220;49.450;11.052;2024-01-30T03:54:59;2.92;;;2.63;;
14272;SDS011;7220;49.450;11.052;2024-01-30T03:59:00;2.90;;;2.45;;
14272;SDS011;7220;49.450;11.052;2024-01-30T04:03:02;3.65;;;2.15;;
14272;SDS011;7220;49.450;11.052;2024-01-30T04:07:03;4.80;;;2.60;;
14272;SDS011;7220;49.450;11.052;2024-01-30T04:11:06;3.53;;;2.85;;
14272;SDS011;7220;49.450;11.052;2024-01-30T04:15:07;3.15;;;2.60;;
14272;SDS011;7220;49.450;11.052;2024-01-30T04:19:08;3.33;;;2.50;;
14272;SDS011;7220;49.450;11.052;2024-01-30T04:23:08;2.75;;;2.42;;
14272;SDS011;7220;49.450;11.052;2024-01-30T04:27:09;4.40;;;2.80;;
14272;SDS011;7220;49.450;11.052;2024-01-30T04:31:09;4.10;;;3.05;;
14272;SDS011;7220;49.450;11.052;2024-01-30T04:35:09;3.45;;;2.70;;
14272;SDS011;7220;49.450;11.052;2024-01-30T04:39:10;6.43;;;3.08;;
14272;SDS011;7220;49.450;11.052;2024-01-30T04:43:10;3.30;;;2.53;;
14272;SDS011;7220;49.450;11.052;2024-01-30T04:47:10;3.75;;;3.00;;
14272;SDS011;7220;49.450;11.052;2024-01-30T04:51:12;2.83;;;2.60;;
14272;SDS011;7220;49.450;11.052;2024-01-30T04:55:12;3.63;;;2.58;;
14272;SDS011;7220;49.450;11.052;2024-01-30T04:59:12;4.53;;;2.60;;
14272;SDS011;7220;49.450;11.052;2024-01-30T05:03:13;2.70;;;2.17;;
14272;SDS011;7220;49.450;11.052;2024-01-30T05:07:13;4.40;;;3.15;;
14272;SDS011;7220;49.450;11.052;2024-01-30T05:11:13;3.17;;;2.95;;
14272;SDS011;7220;49.450;11.052;2024-01-30T05:15:14;3.53;;;2.88;;
14272;SDS011;7220;49.450;11.052;2024-01-30T05:19:14;4.18;;;3.00;;
14272;SDS011;7220;49.450;11.052;2024-01-30T05:23:15;3.45;;;2.90;;
14272;SDS011;7220;49.450;11.052;2024-01-30T05:27:15;3.58;;;3.05;;
14272;SDS011;7220;49.450;11.052;2024-01-30T05:31:15;4.07;;;3.33;;
14272;SDS011;7220;49.450;11.052;2024-01-30T05:35:16;6.68;;;3.83;;
14272;SDS011;7220;49.450;11.052;2024-01-30T05:39:16;3.42;;;3.08;;
14272;SDS011;7220;49.450;11.052;2024-01-30T05:43:17;3.42;;;3.13;;
14272;SDS011;7220;49.450;11.052;2024-01-30T05:47:17;6.28;;;4.05;;
14272;SDS011;7220;49.450;11.052;2024-01-30T05:51:17;3.42;;;3.13;;
14272;SDS011;7220;49.450;11.052;2024-01-30T05:55:18;6.50;;;3.85;;
14272;SDS011;7220;49.450;11.052;2024-01-30T05:59:18;4.22;;;3.83;;
14272;SDS011;7220;49.450;11.052;2024-01-30T06:03:18;5.10;;;3.22;;
14272;SDS011;7220;49.450;11.052;2024-01-30T06:07:19;4.10;;;3.05;;
14272;SDS011;7220;49.450;11.052;2024-01-30T06:11:19;4.15;;;3.33;;
14272;SDS011;7220;49.450;11.052;2024-01-30T06:15:20;4.80;;;3.13;;
14272;SDS011;7220;49.450;11.052;2024-01-30T06:19:20;5.70;;;3.85;;
14272;SDS011;7220;49.450;11.052;2024-01-30T06:23:21;4.30;;;3.50;;
14272;SDS011;7220;49.450;11.052;2024-01-30T06:27:21;4.07;;;3.50;;
14272;SDS011;7220;49.450;11.052;2024-01-30T06:31:21;6.03;;;4.20;;
14272;SDS011;7220;49.450;11.052;2024-01-30T06:35:22;4.93;;;4.07;;
14272;SDS011;7220;49.450;11.052;2024-01-30T06:39:22;3.60;;;3.30;;
14272;SDS011;7220;49.450;11.052;2024-01-30T06:43:23;4.30;;;3.50;;
14272;SDS011;7220;49.450;11.052;2024-01-30T06:47:23;5.97;;;3.83;;
14272;SDS011;7220;49.450;11.052;2024-01-30T06:51:24;8.48;;;4.68;;
14272;SDS011;7220;49.450;11.052;2024-01-30T06:55:24;6.40;;;4.05;;
14272;SDS011;7220;49.450;11.052;2024-01-30T06:59:24;5.03;;;3.67;;
14272;SDS011;7220;49.450;11.052;2024-01-30T07:03:25;4.70;;;3.88;;
14272;SDS011;7220;49.450;11.052;2024-01-30T07:07:25;6.32;;;4.30;;
14272;SDS011;7220;49.450;11.052;2024-01-30T07:11:26;5.90;;;4.53;;
14272;SDS011;7220;49.450;11.052;2024-01-30T07:15:27;5.88;;;3.80;;
14272;SDS011;7220;49.450;11.052;2024-01-30T07:19:27;7.13;;;4.70;;
14272;SDS011;7220;49.450;11.052;2024-01-30T07:23:28;7.43;;;5.05;;
14272;SDS011;7220;49.450;11.052;2024-01-30T07:27:29;9.40;;;4.10;;
14272;SDS011;7220;49.450;11.052;2024-01-30T07:31:29;7.05;;;4.57;;
14272;SDS011;7220;49.450;11.052;2024-01-30T07:35:30;6.25;;;5.03;;
14272;SDS011;7220;49.450;11.052;2024-01-30T07:39:30;8.90;;;5.60;;
14272;SDS011;7220;49.450;11.052;2024-01-30T07:43:30;6.00;;;4.55;;
14272;SDS011;7220;49.450;11.052;2024-01-30T07:47:31;6.45;;;4.93;;
14272;SDS011;7220;49.450;11.052;2024-01-30T07:51:31;7.50;;;5.07;;
14272;SDS011;7220;49.450;11.052;2024-01-30T07:55:32;8.57;;;6.22;;
14272;SDS011;7220;49.450;11.052;2024-01-30T07:59:33;7.50;;;4.97;;
14272;SDS011;7220;49.450;11.052;2024-01-30T08:03:33;8.40;;;5.65;;
14272;SDS011;7220;49.450;11.052;2024-01-30T08:07:34;6.63;;;5.05;;
14272;SDS011;7220;49.450;11.052;2024-01-30T08:11:34;7.78;;;5.07;;
14272;SDS011;7220;49.450;11.052;2024-01-30T08:15:35;8.27;;;6.18;;
14272;SDS011;7220;49.450;11.052;2024-01-30T08:19:37;7.93;;;5.65;;
14272;SDS011;7220;49.450;11.052;2024-01-30T08:23:40;7.82;;;6.38;;
14272;SDS011;7220;49.450;11.052;2024-01-30T08:27:41;8.15;;;5.93;;
14272;SDS011;7220;49.450;11.052;2024-01-30T08:31:41;8.57;;;6.10;;
14272;SDS011;7220;49.450;11.052;2024-01-30T08:35:42;6.78;;;5.80;;
14272;SDS011;7220;49.450;11.052;2024-01-30T08:39:43;8.20;;;6.00;;
14272;SDS011;7220;49.450;11.052;2024-01-30T08:43:43;7.40;;;5.68;;
14272;SDS011;7220;49.450;11.052;2024-01-30T08:47:44;8.85;;;5.70;;
14272;SDS011;7220;49.450;11.052;2024-01-30T08:51:45;6.65;;;5.50;;
14272;SDS011;7220;49.450;11.052;2024-01-30T08:55:45;8.35;;;6.45;;
14272;SDS011;7220;49.450;11.052;2024-01-30T08:59:46;7.50;;;5.70;;
14272;SDS011;7220;49.450;11.052;2024-01-30T09:03:46;7.90;;;5.47;;
14272;SDS011;7220;49.450;11.052;2024-01-30T09:07:47;8.40;;;5.70;;
14272;SDS011;7220;49.450;11.052;2024-01-30T09:11:47;9.00;;;5.78;;
14272;SDS011;7220;49.450;11.052;2024-01-30T09:15:47;8.82;;;6.13;;
14272;SDS011;7220;49.450;11.052;2024-01-30T09:19:48;6.88;;;5.07;;
14272;SDS011;7220;49.450;11.052;2024-01-30T09:23:48;7.88;;;5.85;;
14272;SDS011;7220;49.450;11.052;2024-01-30T09:27:48;12.00;;;5.75;;
14272;SDS011;7220;49.450;11.052;2024-01-30T09:31:49;7.50;;;5.68;;
14272;SDS011;7220;49.450;11.052;2024-01-30T09:35:49;9.35;;;5.75;;
14272;SDS011;7220;49.450;11.052;2024-01-30T09:39:49;9.50;;;5.93;;
14272;SDS011;7220;49.450;11.052;2024-01-30T09:43:50;6.72;;;5.32;;
14272;SDS011;7220;49.450;11.052;2024-01-30T09:47:50;6.93;;;5.47;;
14272;SDS011;7220;49.450;11.052;2024-01-30T09:51:51;9.85;;;6.45;;
14272;SDS011;7220;49.450;11.052;2024-01-30T09:55:53;7.22;;;6.20;;
14272;SDS011;7220;49.450;11.052;2024-01-30T09:59:53;9.95;;;6.30;;
14272;SDS011;7220;49.450;11.052;2024-01-30T10:03:54;9.25;;;5.65;;
14272;SDS011;7220;49.450;11.052;2024-01-30T10:07:56;9.40;;;5.90;;
14272;SDS011;7220;49.450;11.052;2024-01-30T10:11:57;8.65;;;5.75;;
14272;SDS011;7220;49.450;11.052;2024-01-30T10:15:57;8.50;;;5.95;;
14272;SDS011;7220;49.450;11.052;2024-01-30T10:19:58;8.25;;;6.03;;
14272;SDS011;7220;49.450;11.052;2024-01-30T10:23:58;9.50;;;6.03;;
14272;SDS011;7220;49.450;11.052;2024-01-30T10:27:59;8.70;;;5.70;;
14272;SDS011;7220;49.450;11.052;2024-01-30T10:32:03;6.40;;;5.47;;
14272;SDS011;7220;49.450;11.052;2024-01-30T10:36:05;9.93;;;6.38;;
14272;SDS011;7220;49.450;11.052;2024-01-30T10:40:06;6.72;;;5.60;;
14272;SDS011;7220;49.450;11.052;2024-01-30T10:44:09;10.05;;;6.00;;
14272;SDS011;7220;49.450;11.052;2024-01-30T10:48:10;10.07;;;6.60;;
14272;SDS011;7220;49.450;11.052;2024-01-30T10:52:12;8.55;;;6.00;;
14272;SDS011;7220;49.450;11.052;2024-01-30T10:56:13;9.30;;;6.25;;
14272;SDS011;7220;49.450;11.052;2024-01-30T11:00:16;8.60;;;5.75;;
14272;SDS011;7220;49.450;11.052;2024-01-30T11:04:19;9.98;;;6.03;;
14272;SDS011;7220;49.450;11.052;2024-01-30T11:08:24;8.52;;;6.15;;
14272;SDS011;7220;49.450;11.052;2024-01-30T11:12:26;8.60;;;5.57;;
14272;SDS011;7220;49.450;11.052;2024-01-30T11:16:30;8.45;;;6.00;;
14272;SDS011;7220;49.450;11.052;2024-01-30T11:20:32;8.55;;;6.05;;
14272;SDS011;7220;49.450;11.052;2024-01-30T11:24:39;9.15;;;6.50;;
14272;SDS011;7220;49.450;11.052;2024-01-30T11:28:43;9.05;;;6.30;;
14272;SDS011;7220;49.450;11.052;2024-01-30T11:37:02;8.07;;;5.93;;
14272;SDS011;7220;49.450;11.052;2024-01-30T11:41:04;8.30;;;5.43;;
14272;SDS011;7220;49.450;11.052;2024-01-30T11:45:04;6.43;;;5.45;;
14272;SDS011;7220;49.450;11.052;2024-01-30T11:49:05;13.13;;;7.10;;
14272;SDS011;7220;49.450;11.052;2024-01-30T11:53:06;14.73;;;6.85;;
14272;SDS011;7220;49.450;11.052;2024-01-30T11:57:07;9.15;;;5.07;;
14272;SDS011;7220;49.450;11.052;2024-01-30T12:01:07;12.45;;;6.47;;
14272;SDS011;7220;49.450;11.052;2024-01-30T12:05:07;10.05;;;6.68;;
14272;SDS011;7220;49.450;11.052;2024-01-30T12:09:09;8.73;;;6.25;;
14272;SDS011;7220;49.450;11.052;2024-01-30T12:13:12;8.88;;;5.40;;
14272;SDS011;7220;49.450;11.052;2024-01-30T12:17:24;7.20;;;5.18;;
14272;SDS011;7220;49.450;11.052;2024-01-30T12:21:28;7.93;;;5.25;;
14272;SDS011;7220;49.450;11.052;2024-01-30T12:25:29;10.13;;;5.43;;
14272;SDS011;7220;49.450;11.052;2024-01-30T12:29:33;6.75;;;5.47;;
14272;SDS011;7220;49.450;11.052;2024-01-30T12:33:35;7.65;;;5.80;;
14272;SDS011;7220;49.450;11.052;2024-01-30T12:37:36;8.65;;;5.03;;
14272;SDS011;7220;49.450;11.052;2024-01-30T12:41:36;8.60;;;5.35;;
14272;SDS011;7220;49.450;11.052;2024-01-30T12:45:37;7.20;;;5.07;;
14272;SDS011;7220;49.450;11.052;2024-01-30T12:49:37;8.07;;;5.47;;
14272;SDS011;7220;49.450;11.052;2024-01-30T12:53:38;8.23;;;4.90;;
14272;SDS011;7220;49.450;11.052;2024-01-30T12:57:38;8.52;;;5.45;;
14272;SDS011;7220;49.450;11.052;2024-01-30T13:01:39;5.82;;;4.90;;
14272;SDS011;7220;49.450;11.052;2024-01-30T13:05:40;6.78;;;5.47;;
14272;SDS011;7220;49.450;11.052;2024-01-30T13:09:40;9.30;;;5.80;;
14272;SDS011;7220;49.450;11.052;2024-01-30T13:13:40;7.65;;;4.90;;
14272;SDS011;7220;49.450;11.052;2024-01-30T13:17:41;7.68;;;5.03;;
14272;SDS011;7220;49.450;11.052;2024-01-30T13:21:42;8.00;;;5.07;;
14272;SDS011;7220;49.450;11.052;2024-01-30T13:25:43;10.63;;;5.57;;
14272;SDS011;7220;49.450;11.052;2024-01-30T13:29:43;9.35;;;5.93;;
14272;SDS011;7220;49.450;11.052;2024-01-30T13:33:44;7.05;;;5.05;;
14272;SDS011;7220;49.450;11.052;2024-01-30T13:37:44;7.95;;;6.13;;
14272;SDS011;7220;49.450;11.052;2024-01-30T13:41:44;7.80;;;6.03;;
14272;SDS011;7220;49.450;11.052;2024-01-30T13:45:45;7.45;;;6.57;;
14272;SDS011;7220;49.450;11.052;2024-01-30T13:49:46;10.35;;;6.32;;
14272;SDS011;7220;49.450;11.052;2024-01-30T13:53:46;10.57;;;6.95;;
14272;SDS011;7220;49.450;11.052;2024-01-30T13:57:46;7.75;;;5.55;;
14272;SDS011;7220;49.450;11.052;2024-01-30T14:01:47;7.70;;;5.75;;
14272;SDS011;7220;49.450;11.052;2024-01-30T14:05:47;6.10;;;4.82;;
14272;SDS011;7220;49.450;11.052;2024-01-30T14:09:48;10.25;;;5.63;;
14272;SDS011;7220;49.450;11.052;2024-01-30T14:13:49;7.03;;;5.03;;
14272;SDS011;7220;49.450;11.052;2024-01-30T14:17:50;9.77;;;5.63;;
14272;SDS011;7220;49.450;11.052;2024-01-30T14:21:51;9.15;;;5.72;;
14272;SDS011;7220;49.450;11.052;2024-01-30T14:25:51;8.38;;;5.28;;
14272;SDS011;7220;49.450;11.052;2024-01-30T14:29:52;7.35;;;5.43;;
14272;SDS011;7220;49.450;11.052;2024-01-30T14:33:52;6.32;;;4.90;;
14272;SDS011;7220;49.450;11.052;2024-01-30T14:37:55;8.88;;;5.15;;
14272;SDS011;7220;49.450;11.052;2024-01-30T14:41:55;8.23;;;5.32;;
14272;SDS011;7220;49.450;11.052;2024-01-30T14:45:55;8.88;;;5.30;;
14272;SDS011;7220;49.450;11.052;2024-01-30T14:49:56;7.82;;;5.45;;
14272;SDS011;7220;49.450;11.052;2024-01-30T14:53:57;11.35;;;5.90;;
14272;SDS011;7220;49.450;11.052;2024-01-30T14:57:57;9.07;;;5.45;;
14272;SDS011;7220;49.450;11.052;2024-01-30T15:01:59;7.25;;;5.63;;
14272;SDS011;7220;49.450;11.052;2024-01-30T15:05:59;7.63;;;5.13;;
14272;SDS011;7220;49.450;11.052;2024-01-30T15:10:00;8.25;;;5.75;;
14272;SDS011;7220;49.450;11.052;2024-01-30T15:14:01;7.97;;;5.05;;
14272;SDS011;7220;49.450;11.052;2024-01-30T15:18:01;7.53;;;5.43;;
14272;SDS011;7220;49.450;11.052;2024-01-30T15:22:02;11.45;;;5.30;;
14272;SDS011;7220;49.450;11.052;2024-01-30T15:26:02;5.82;;;5.05;;
14272;SDS011;7220;49.450;11.052;2024-01-30T15:30:03;6.22;;;5.45;;
14272;SDS011;7220;49.450;11.052;2024-01-30T15:34:04;7.57;;;5.72;;
14272;SDS011;7220;49.450;11.052;2024-01-30T15:38:05;8.68;;;4.93;;
14272;SDS011;7220;49.450;11.052;2024-01-30T15:42:08;7.47;;;5.45;;
14272;SDS011;7220;49.450;11.052;2024-01-30T15:46:09;7.22;;;5.30;;
14272;SDS011;7220;49.450;11.052;2024-01-30T15:50:11;7.53;;;5.05;;
14272;SDS011;7220;49.450;11.052;2024-01-30T15:54:11;9.77;;;5.90;;
14272;SDS011;7220;49.450;11.052;2024-01-30T15:58:12;11.13;;;6.18;;
14272;SDS011;7220;49.450;11.052;2024-01-30T16:02:12;9.00;;;5.70;;
14272;SDS011;7220;49.450;11.052;2024-01-30T16:06:14;7.45;;;5.65;;
14272;SDS011;7220;49.450;11.052;2024-01-30T16:10:14;6.47;;;4.68;;
14272;SDS011;7220;49.450;11.052;2024-01-30T16:14:16;7.82;;;5.00;;
14272;SDS011;7220;49.450;11.052;2024-01-30T16:18:16;6.18;;;4.82;;
14272;SDS011;7220;49.450;11.052;2024-01-30T16:22:17;7.25;;;5.65;;
14272;SDS011;7220;49.450;11.052;2024-01-30T16:26:18;6.57;;;5.25;;
14272;SDS011;7220;49.450;11.052;2024-01-30T16:30:19;6.28;;;5.22;;
14272;SDS011;7220;49.450;11.052;2024-01-30T16:34:19;9.18;;;5.63;;
14272;SDS011;7220;49.450;11.052;2024-01-30T16:38:20;9.30;;;5.68;;
14272;SDS011;7220;49.450;11.052;2024-01-30T16:42:20;6.53;;;5.03;;
14272;SDS011;7220;49.450;11.052;2024-01-30T16:46:21;9.10;;;5.47;;
14272;SDS011;7220;49.450;11.052;2024-01-30T16:50:21;7.82;;;5.85;;
14272;SDS011;7220;49.450;11.052;2024-01-30T16:54:21;8.45;;;6.15;;
14272;SDS011;7220;49.450;11.052;2024-01-30T16:58:22;10.20;;;5.22;;
14272;SDS011;7220;49.450;11.052;2024-01-30T17:02:22;7.25;;;5.50;;
14272;SDS011;7220;49.450;11.052;2024-01-30T17:06:22;6.75;;;5.10;;
14272;SDS011;7220;49.450;11.052;2024-01-30T17:10:23;9.50;;;6.03;;
14272;SDS011;7220;49.450;11.052;2024-01-30T17:14:23;5.90;;;5.25;;
14272;SDS011;7220;49.450;11.052;2024-01-30T17:18:24;7.10;;;5.72;;
14272;SDS011;7220;49.450;11.052;2024-01-30T17:22:24;7.38;;;5.35;;
14272;SDS011;7220;49.450;11.052;2024-01-30T17:26:24;8.80;;;5.43;;
14272;SDS011;7220;49.450;11.052;2024-01-30T17:30:25;8.45;;;6.45;;
14272;SDS011;7220;49.450;11.052;2024-01-30T17:34:25;7.88;;;5.72;;
14272;SDS011;7220;49.450;11.052;2024-01-30T17:38:26;7.35;;;5.85;;
14272;SDS011;7220;49.450;11.052;2024-01-30T17:42:27;7.30;;;5.32;;
14272;SDS011;7220;49.450;11.052;2024-01-30T17:46:27;11.98;;;8.98;;
14272;SDS011;7220;49.450;11.052;2024-01-30T17:50:28;10.25;;;8.13;;
14272;SDS011;7220;49.450;11.052;2024-01-30T17:54:28;11.23;;;8.35;;
14272;SDS011;7220;49.450;11.052;2024-01-30T17:58:29;9.57;;;7.32;;
14272;SDS011;7220;49.450;11.052;2024-01-30T18:02:29;14.68;;;8.27;;
14272;SDS011;7220;49.450;11.052;2024-01-30T18:06:30;10.13;;;7.45;;
14272;SDS011;7220;49.450;11.052;2024-01-30T18:10:30;8.90;;;6.55;;
14272;SDS011;7220;49.450;11.052;2024-01-30T18:14:30;9.70;;;6.38;;
14272;SDS011;7220;49.450;11.052;2024-01-30T18:18:31;8.98;;;5.85;;
14272;SDS011;7220;49.450;11.052;2024-01-30T18:22:31;7.10;;;6.30;;
14272;SDS011;7220;49.450;11.052;2024-01-30T18:26:32;10.45;;;6.15;;
14272;SDS011;7220;49.450;11.052;2024-01-30T18:30:32;6.82;;;5.47;;
14272;SDS011;7220;49.450;11.052;2024-01-30T18:34:33;10.40;;;7.43;;
14272;SDS011;7220;49.450;11.052;2024-01-30T18:38:33;8.63;;;6.82;;
14272;SDS011;7220;49.450;11.052;2024-01-30T18:42:33;9.52;;;5.65;;
14272;SDS011;7220;49.450;11.052;2024-01-30T18:46:34;8.05;;;6.03;;
14272;SDS011;7220;49.450;11.052;2024-01-30T18:50:34;7.20;;;6.18;;
14272;SDS011;7220;49.450;11.052;2024-01-30T18:54:34;8.10;;;6.40;;
14272;SDS011;7220;49.450;11.052;2024-01-30T18:58:35;10.57;;;6.32;;
14272;SDS011;7220;49.450;11.052;2024-01-30T19:02:35;7.82;;;5.63;;
14272;SDS011;7220;49.450;11.052;2024-01-30T19:06:36;8.90;;;6.70;;
14272;SDS011;7220;49.450;11.052;2024-01-30T19:10:37;9.68;;;6.18;;
14272;SDS011;7220;49.450;11.052;2024-01-30T19:14:37;8.30;;;6.43;;
14272;SDS011;7220;49.450;11.052;2024-01-30T19:18:38;8.43;;;6.22;;
14272;SDS011;7220;49.450;11.052;2024-01-30T19:22:38;7.47;;;5.60;;
14272;SDS011;7220;49.450;11.052;2024-01-30T19:26:39;7.00;;;6.20;;
14272;SDS011;7220;49.450;11.052;2024-01-30T19:30:39;7.75;;;5.97;;
14272;SDS011;7220;49.450;11.052;2024-01-30T19:34:40;10.18;;;6.53;;
14272;SDS011;7220;49.450;11.052;2024-01-30T19:38:40;6.68;;;5.60;;
14272;SDS011;7220;49.450;11.052;2024-01-30T19:42:41;8.63;;;5.85;;
14272;SDS011;7220;49.450;11.052;2024-01-30T19:46:41;9.38;;;6.07;;
14272;SDS011;7220;49.450;11.052;2024-01-30T19:50:42;6.07;;;5.47;;
14272;SDS011;7220;49.450;11.052;2024-01-30T19:54:42;6.97;;;5.22;;
14272;SDS011;7220;49.450;11.052;2024-01-30T19:58:43;7.95;;;5.93;;
14272;SDS011;7220;49.450;11.052;2024-01-30T20:02:43;6.55;;;5.18;;
14272;SDS011;7220;49.450;11.052;2024-01-30T20:06:44;6.53;;;5.13;;
14272;SDS011;7220;49.450;11.052;2024-01-30T20:10:44;7.50;;;5.15;;
14272;SDS011;7220;49.450;11.052;2024-01-30T20:14:45;7.00;;;5.07;;
14272;SDS011;7220;49.450;11.052;2024-01-30T20:18:45;6.00;;;5.05;;
14272;SDS011;7220;49.450;11.052;2024-01-30T20:22:45;6.38;;;5.10;;
14272;SDS011;7220;49.450;11.052;2024-01-30T20:26:46;7.00;;;5.63;;
14272;SDS011;7220;49.450;11.052;2024-01-30T20:30:47;8.90;;;5.75;;
14272;SDS011;7220;49.450;11.052;2024-01-30T20:34:47;7.85;;;5.57;;
14272;SDS011;7220;49.450;11.052;2024-01-30T20:38:47;8.75;;;5.93;;
14272;SDS011;7220;49.450;11.052;2024-01-30T20:42:48;7.35;;;6.00;;
14272;SDS011;7220;49.450;11.052;2024-01-30T20:46:48;16.98;;;10.77;;
14272;SDS011;7220;49.450;11.052;2024-01-30T20:50:48;14.32;;;10.27;;
14272;SDS011;7220;49.450;11.052;2024-01-30T20:54:49;9.90;;;7.05;;
14272;SDS011;7220;49.450;11.052;2024-01-30T20:58:49;9.60;;;7.25;;
14272;SDS011;7220;49.450;11.052;2024-01-30T21:02:50;9.55;;;7.95;;
14272;SDS011;7220;49.450;11.052;2024-01-30T21:06:50;10.82;;;7.45;;
14272;SDS011;7220;49.450;11.052;2024-01-30T21:10:50;13.48;;;7.68;;
14272;SDS011;7220;49.450;11.052;2024-01-30T21:14:51;11.00;;;7.32;;
14272;SDS011;7220;49.450;11.052;2024-01-30T21:18:51;11.80;;;8.25;;
14272;SDS011;7220;49.450;11.052;2024-01-30T21:22:51;14.05;;;9.32;;
14272;SDS011;7220;49.450;11.052;2024-01-30T21:26:52;12.70;;;7.63;;
14272;SDS011;7220;49.450;11.052;2024-01-30T21:30:52;14.68;;;9.88;;
14272;SDS011;7220;49.450;11.052;2024-01-30T21:34:52;11.80;;;8.30;;
14272;SDS011;7220;49.450;11.052;2024-01-30T21:38:53;9.13;;;6.85;;
14272;SDS011;7220;49.450;11.052;2024-01-30T21:42:53;10.63;;;6.88;;
14272;SDS011;7220;49.450;11.052;2024-01-30T21:46:53;8.90;;;6.70;;
14272;SDS011;7220;49.450;11.052;2024-01-30T21:50:54;9.73;;;6.50;;
14272;SDS011;7220;49.450;11.052;2024-01-30T21:54:54;10.75;;;6.28;;
14272;SDS011;7220;49.450;11.052;2024-01-30T21:58:54;7.50;;;6.10;;
14272;SDS011;7220;49.450;11.052;2024-01-30T22:02:55;8.00;;;5.60;;
14272;SDS011;7220;49.450;11.052;2024-01-30T22:06:55;9.77;;;6.32;;
14272;SDS011;7220;49.450;11.052;2024-01-30T22:10:56;8.48;;;6.35;;
14272;SDS011;7220;49.450;11.052;2024-01-30T22:14:56;11.73;;;6.65;;
14272;SDS011;7220;49.450;11.052;2024-01-30T22:18:56;7.65;;;5.45;;
14272;SDS011;7220;49.450;11.052;2024-01-30T22:22:57;7.10;;;5.32;;
14272;SDS011;7220;49.450;11.052;2024-01-30T22:26:57;8.07;;;5.93;;
14272;SDS011;7220;49.450;11.052;2024-01-30T22:30:59;10.38;;;6.57;;
14272;SDS011;7220;49.450;11.052;2024-01-30T22:34:59;7.20;;;6.40;;
14272;SDS011;7220;49.450;11.052;2024-01-30T22:39:01;7.70;;;5.82;;
14272;SDS011;7220;49.450;11.052;2024-01-30T22:43:04;7.00;;;5.30;;
14272;SDS011;7220;49.450;11.052;2024-01-30T22:47:05;7.97;;;5.55;;
14272;SDS011;7220;49.450;11.052;2024-01-30T22:51:05;9.35;;;6.53;;
14272;SDS011;7220;49.450;11.052;2024-01-30T22:55:06;7.93;;;5.60;;
14272;SDS011;7220;49.450;11.052;2024-01-30T22:59:07;6.95;;;4.97;;
14272;SDS011;7220;49.450;11.052;2024-01-30T23:03:07;9.63;;;6.07;;
14272;SDS011;7220;49.450;11.052;2024-01-30T23:07:08;9.02;;;6.03;;
14272;SDS011;7220;49.450;11.052;2024-01-30T23:11:11;7.07;;;5.60;;
14272;SDS011;7220;49.450;11.052;2024-01-30T23:15:15;11.63;;;5.57;;
14272;SDS011;7220;49.450;11.052;2024-01-30T23:19:15;9.95;;;5.55;;
14272;SDS011;7220;49.450;11.052;2024-01-30T23:23:16;8.55;;;5.68;;
14272;SDS011;7220;49.450;11.052;2024-01-30T23:27:17;6.13;;;5.30;;
14272;SDS011;7220;49.450;11.052;2024-01-30T23:31:18;8.38;;;5.80;;
14272;SDS011;7220;49.450;11.052;2024-01-30T23:35:18;8.13;;;5.05;;
14272;SDS011;7220;49.450;11.052;2024-01-30T23:39:18;10.13;;;5.53;;
14272;SDS011;7220;49.450;11.052;2024-01-30T23:43:20;8.05;;;5.47;;
14272;SDS011;7220;49.450;11.052;2024-01-30T23:47:20;7.22;;;5.07;;
14272;SDS011;7220;49.450;11.052;2024-01-30T23:51:20;6.22;;;4.93;;
14272;SDS011;7220;49.450;11.052;2024-01-30T23:55:21;7.25;;;5.28;;
14272;SDS011;7220;49.450;11.052;2024-01-30T23:59:21;9.10;;;5.55;;
